Time;durP1;ratioP1;P1;durP2;ratioP2;P2;SDS_P1;SDS_P2;PMS_P1;PMS_P2;Temp;Humidity;BMP_temperature;BMP_pressure;BME280_temperature;BME280_humidity;BME280_pressure;Samples;Min_cycle;Max_cycle;Signal;HPM_P1;HPM_P2
2023/09/11 00:01:18;;;;;;;3.78;3.38;;;27.60;54.90;;;;;;5023531;28;20021;-68
2023/09/11 00:03:44;;;;;;;3.65;3.35;;;27.60;55.00;;;;;;5021833;28;20044;-68
2023/09/11 00:06:09;;;;;;;3.60;3.20;;;27.60;55.00;;;;;;5021039;28;20029;-66
2023/09/11 00:08:35;;;;;;;3.70;3.40;;;27.60;55.00;;;;;;5022219;28;20018;-66
2023/09/11 00:11:01;;;;;;;3.50;3.20;;;27.60;55.00;;;;;;5023561;28;20109;-66
2023/09/11 00:13:29;;;;;;;3.97;3.58;;;27.60;55.00;;;;;;5022620;28;20030;-68
2023/09/11 00:15:54;;;;;;;3.58;3.25;;;27.60;55.10;;;;;;5023163;28;20465;-67
2023/09/11 00:18:20;;;;;;;3.80;3.40;;;27.60;55.60;;;;;;5022761;28;20030;-67
2023/09/11 00:20:46;;;;;;;4.00;3.60;;;27.60;55.10;;;;;;5022971;28;20535;-66
2023/09/11 00:23:11;;;;;;;4.07;3.67;;;27.50;55.00;;;;;;5023904;28;20057;-64
2023/09/11 00:25:37;;;;;;;3.50;3.20;;;27.50;55.00;;;;;;5021429;28;20576;-62
2023/09/11 00:28:03;;;;;;;4.22;3.60;;;27.50;55.00;;;;;;5020925;28;20095;-63
2023/09/11 00:30:29;;;;;;;3.75;3.35;;;27.50;55.00;;;;;;5022466;28;20456;-64
2023/09/11 00:32:54;;;;;;;3.83;3.42;;;27.50;55.00;;;;;;5021529;28;20054;-67
2023/09/11 00:35:20;;;;;;;3.25;2.95;;;27.50;55.10;;;;;;5020797;28;20105;-66
2023/09/11 00:37:46;;;;;;;3.65;3.35;;;27.50;55.10;;;;;;5019339;28;20060;-67
2023/09/11 00:40:11;;;;;;;3.88;3.47;;;27.50;55.10;;;;;;5022983;28;20037;-66
2023/09/11 00:42:37;;;;;;;3.60;3.30;;;27.40;55.00;;;;;;5021692;28;20437;-67
2023/09/11 00:45:03;;;;;;;4.07;3.40;;;27.40;55.10;;;;;;5023166;28;20030;-67
2023/09/11 00:47:29;;;;;;;3.42;3.13;;;27.40;55.00;;;;;;5021594;28;20084;-67
2023/09/11 00:49:57;;;;;;;3.85;3.45;;;27.50;55.10;;;;;;5021792;28;20080;-67
2023/09/11 00:52:23;;;;;;;3.80;3.40;;;27.40;55.10;;;;;;5020025;28;20120;-66
2023/09/11 00:54:51;;;;;;;3.67;3.30;;;27.40;55.10;;;;;;5021610;28;20509;-67
2023/09/11 00:57:18;;;;;;;4.03;3.63;;;27.40;55.10;;;;;;5018372;28;20030;-67
2023/09/11 00:59:45;;;;;;;3.50;3.20;;;27.40;55.10;;;;;;5022677;28;20539;-66
2023/09/11 01:02:13;;;;;;;3.92;3.53;;;27.40;55.10;;;;;;5021624;28;20107;-67
2023/09/11 01:04:40;;;;;;;3.60;3.30;;;27.40;55.10;;;;;;5020462;28;20034;-67
2023/09/11 01:07:05;;;;;;;3.80;3.40;;;27.40;55.10;;;;;;5021864;28;20033;-67
2023/09/11 01:09:33;;;;;;;3.47;3.17;;;27.40;55.10;;;;;;5021168;28;20418;-67
2023/09/11 01:11:58;;;;;;;3.88;3.45;;;27.40;55.10;;;;;;5020569;28;20037;-62
2023/09/11 01:14:25;;;;;;;3.78;3.38;;;27.40;55.10;;;;;;5019447;28;20084;-61
2023/09/11 01:17:12;;;;;;;3.80;3.40;;;27.40;55.20;;;;;;5022255;28;20532;-61
2023/09/11 01:19:56;;;;;;;3.70;3.25;;;27.30;55.10;;;;;;5020741;28;21012;-61
2023/09/11 01:22:24;;;;;;;3.28;2.97;;;27.30;55.10;;;;;;5020769;28;20114;-61
2023/09/11 01:25:22;;;;;;;3.25;2.90;;;27.30;55.10;;;;;;5021245;28;20568;-63
2023/09/11 01:27:57;;;;;;;3.45;3.10;;;27.30;55.10;;;;;;4995846;28;20045;-63
2023/09/11 01:30:25;;;;;;;3.20;2.90;;;27.30;55.20;;;;;;5020278;28;20053;-62
2023/09/11 01:32:52;;;;;;;3.42;3.13;;;27.30;55.10;;;;;;5020657;28;20104;-66
2023/09/11 01:35:17;;;;;;;3.50;3.20;;;27.30;55.20;;;;;;5020264;28;20041;-68
2023/09/11 01:37:43;;;;;;;3.40;3.10;;;27.30;55.20;;;;;;5020238;28;20338;-67
2023/09/11 01:40:09;;;;;;;3.30;2.97;;;27.30;55.20;;;;;;5012539;28;20106;-67
2023/09/11 01:42:44;;;;;;;3.72;3.20;;;27.30;55.20;;;;;;5020748;28;20033;-67
2023/09/11 01:45:14;;;;;;;3.42;3.13;;;27.20;55.20;;;;;;5019351;28;20052;-66
2023/09/11 01:47:45;;;;;;;3.50;3.03;;;27.20;55.20;;;;;;5019307;28;20112;-66
2023/09/11 01:50:14;;;;;;;3.70;3.40;;;27.20;55.20;;;;;;5020073;28;20449;-67
2023/09/11 01:52:41;;;;;;;3.42;3.13;;;27.20;55.20;;;;;;5019813;28;20503;-67
2023/09/11 01:55:08;;;;;;;3.03;2.72;;;27.20;55.20;;;;;;5020586;28;20101;-67
2023/09/11 01:57:34;;;;;;;3.80;3.40;;;27.20;55.20;;;;;;5019236;28;20021;-66
2023/09/11 01:59:59;;;;;;;3.40;3.10;;;27.20;55.20;;;;;;5020267;28;20044;-67
2023/09/11 02:02:25;;;;;;;3.05;2.75;;;27.20;55.20;;;;;;5020106;28;20735;-69
2023/09/11 02:04:50;;;;;;;3.42;3.13;;;27.20;55.20;;;;;;5019369;28;20040;-67
2023/09/11 02:07:16;;;;;;;3.10;2.80;;;27.20;55.20;;;;;;5019847;28;20424;-66
2023/09/11 02:09:42;;;;;;;3.20;2.90;;;27.20;55.30;;;;;;5020059;28;20029;-66
2023/09/11 02:12:07;;;;;;;3.25;2.95;;;27.20;55.30;;;;;;5020653;28;20025;-67
2023/09/11 02:14:33;;;;;;;3.35;2.92;;;27.20;55.30;;;;;;5018245;28;20025;-67
2023/09/11 02:17:02;;;;;;;3.40;3.10;;;27.10;55.20;;;;;;5019951;28;20030;-67
2023/09/11 02:19:29;;;;;;;3.63;3.30;;;27.10;55.20;;;;;;5019492;28;20497;-66
2023/09/11 02:21:55;;;;;;;3.40;3.10;;;27.10;55.20;;;;;;5019832;28;20477;-66
2023/09/11 02:24:20;;;;;;;3.63;3.17;;;27.10;55.20;;;;;;5019011;28;20049;-66
2023/09/11 02:26:46;;;;;;;3.00;2.70;;;27.10;55.20;;;;;;5018059;28;20077;-67
2023/09/11 02:29:12;;;;;;;3.47;3.17;;;27.10;55.30;;;;;;5019912;28;20432;-67
2023/09/11 02:31:37;;;;;;;3.28;2.97;;;27.10;55.20;;;;;;5019231;28;20057;-67
2023/09/11 02:34:03;;;;;;;3.72;3.05;;;27.10;55.30;;;;;;5020420;28;20068;-68
2023/09/11 02:36:28;;;;;;;3.40;3.10;;;27.10;55.30;;;;;;5015095;28;20491;-65
2023/09/11 02:38:54;;;;;;;3.13;2.83;;;27.10;55.20;;;;;;5020316;28;20045;-66
2023/09/11 02:41:20;;;;;;;3.30;3.00;;;27.10;55.30;;;;;;5019181;28;20053;-66
2023/09/11 02:43:45;;;;;;;3.38;3.08;;;27.10;55.30;;;;;;5019578;28;20044;-63
2023/09/11 02:46:11;;;;;;;3.53;3.22;;;27.00;55.20;;;;;;5020731;28;20060;-63
2023/09/11 02:48:43;;;;;;;3.00;2.70;;;27.00;55.20;;;;;;5019023;28;20030;-64
2023/09/11 02:51:08;;;;;;;3.40;3.08;;;27.00;55.20;;;;;;5019205;28;20508;-63
2023/09/11 02:53:34;;;;;;;4.00;3.40;;;27.00;55.20;;;;;;5019979;28;20026;-68
2023/09/11 02:56:00;;;;;;;3.15;2.85;;;27.00;55.20;;;;;;5018016;28;20041;-67
2023/09/11 02:58:25;;;;;;;3.28;2.95;;;27.00;55.20;;;;;;5019597;28;20030;-68
2023/09/11 03:00:51;;;;;;;3.20;2.90;;;27.00;55.30;;;;;;5021338;28;20026;-67
2023/09/11 03:03:16;;;;;;;3.40;3.10;;;27.00;55.30;;;;;;5022491;28;20545;-67
2023/09/11 03:05:42;;;;;;;3.10;2.80;;;27.00;55.30;;;;;;5023016;28;20030;-67
2023/09/11 03:08:08;;;;;;;3.08;2.63;;;27.00;55.30;;;;;;5024612;28;20377;-68
2023/09/11 03:10:33;;;;;;;3.72;3.10;;;27.00;55.30;;;;;;5023099;28;20040;-68
2023/09/11 03:12:59;;;;;;;3.10;2.80;;;27.00;55.30;;;;;;5024249;28;20473;-68
2023/09/11 03:15:27;;;;;;;3.20;2.90;;;27.00;55.30;;;;;;5022197;28;20060;-66
2023/09/11 03:17:52;;;;;;;3.20;2.90;;;27.00;55.80;;;;;;5022695;28;20045;-66
2023/09/11 03:20:18;;;;;;;3.40;3.10;;;26.90;55.30;;;;;;5024127;28;20441;-68
2023/09/11 03:22:44;;;;;;;3.50;2.80;;;26.90;55.20;;;;;;5022461;28;20061;-67
2023/09/11 03:25:10;;;;;;;3.58;3.00;;;26.90;55.30;;;;;;5022738;28;20033;-67
2023/09/11 03:27:36;;;;;;;3.08;2.78;;;26.90;55.30;;;;;;5023053;28;20037;-68
2023/09/11 03:30:01;;;;;;;3.47;2.95;;;26.90;55.30;;;;;;5021844;28;20033;-68
2023/09/11 03:32:27;;;;;;;3.08;2.78;;;26.90;55.30;;;;;;5023802;28;20022;-67
2023/09/11 03:34:56;;;;;;;3.33;3.03;;;26.90;55.30;;;;;;5024362;28;20105;-66
2023/09/11 03:37:22;;;;;;;3.08;2.78;;;26.90;55.30;;;;;;5023240;28;20029;-67
2023/09/11 03:39:48;;;;;;;3.25;2.95;;;26.90;55.30;;;;;;5022515;28;20473;-67
2023/09/11 03:42:14;;;;;;;3.03;2.72;;;26.90;55.30;;;;;;5017936;28;20021;-66
2023/09/11 03:44:39;;;;;;;3.47;2.83;;;26.90;55.30;;;;;;5023229;28;20053;-67
2023/09/11 03:47:05;;;;;;;3.03;2.72;;;26.90;55.30;;;;;;5024152;28;20022;-66
2023/09/11 03:49:30;;;;;;;3.30;3.00;;;26.90;55.30;;;;;;5020787;28;20030;-66
2023/09/11 03:51:57;;;;;;;3.10;2.80;;;26.90;55.30;;;;;;5021957;28;20338;-68
2023/09/11 03:54:22;;;;;;;3.17;2.88;;;26.90;55.30;;;;;;5022497;28;20029;-67
2023/09/11 03:56:48;;;;;;;3.30;2.90;;;26.80;55.30;;;;;;5021724;28;20049;-67
2023/09/11 03:59:13;;;;;;;3.40;3.05;;;26.90;55.30;;;;;;5021610;28;20111;-66
2023/09/11 04:01:39;;;;;;;3.30;2.88;;;26.80;55.30;;;;;;5021755;28;20121;-65
2023/09/11 04:04:05;;;;;;;3.25;2.92;;;26.80;55.30;;;;;;5021640;28;20123;-66
2023/09/11 04:06:31;;;;;;;3.60;2.70;;;26.80;55.20;;;;;;5020252;28;20079;-68
2023/09/11 04:08:57;;;;;;;3.53;3.00;;;26.80;55.30;;;;;;5021238;28;20096;-68
2023/09/11 04:11:22;;;;;;;3.70;3.10;;;26.80;55.30;;;;;;5020645;28;20496;-66
2023/09/11 04:13:48;;;;;;;3.00;2.70;;;26.80;55.30;;;;;;5021478;28;20068;-68
2023/09/11 04:16:15;;;;;;;3.10;2.72;;;26.80;55.30;;;;;;5021868;28;20025;-65
2023/09/11 04:18:42;;;;;;;3.17;2.80;;;26.80;55.30;;;;;;5022393;28;20034;-66
2023/09/11 04:21:08;;;;;;;3.40;2.80;;;26.80;55.30;;;;;;5021628;28;20036;-68
2023/09/11 04:23:33;;;;;;;3.50;3.05;;;26.80;55.30;;;;;;5021065;28;20037;-68
2023/09/11 04:25:59;;;;;;;3.00;2.70;;;26.80;55.30;;;;;;5021098;28;20120;-68
2023/09/11 04:28:25;;;;;;;3.15;2.85;;;26.70;55.20;;;;;;5021019;28;20033;-67
2023/09/11 04:30:51;;;;;;;3.15;2.85;;;26.70;55.20;;;;;;5023583;28;20497;-68
2023/09/11 04:33:18;;;;;;;3.50;3.00;;;26.80;55.30;;;;;;5021914;28;20047;-67
2023/09/11 04:35:43;;;;;;;3.15;2.85;;;26.70;55.30;;;;;;5021283;28;20022;-67
2023/09/11 04:38:09;;;;;;;3.17;2.88;;;26.70;55.30;;;;;;5022502;28;20492;-67
2023/09/11 04:40:35;;;;;;;3.00;2.70;;;26.70;55.30;;;;;;5019216;28;20025;-67
2023/09/11 04:43:00;;;;;;;3.47;2.90;;;26.70;55.30;;;;;;5023773;28;20137;-62
2023/09/11 04:45:26;;;;;;;2.90;2.60;;;26.70;55.30;;;;;;5022717;28;20035;-61
2023/09/11 04:47:51;;;;;;;3.13;2.80;;;26.70;55.30;;;;;;5022007;28;20519;-62
2023/09/11 04:50:17;;;;;;;2.83;2.50;;;26.70;55.20;;;;;;5023295;28;20114;-63
2023/09/11 04:52:43;;;;;;;3.78;2.92;;;26.70;55.70;;;;;;5020375;28;20371;-62
2023/09/11 04:55:09;;;;;;;3.30;3.00;;;26.70;55.30;;;;;;5021433;28;20032;-61
2023/09/11 04:57:36;;;;;;;3.17;2.88;;;26.70;55.20;;;;;;5021242;28;20049;-62
2023/09/11 05:00:09;;;;;;;3.00;2.70;;;26.70;55.30;;;;;;5022018;28;20035;-63
2023/09/11 05:02:35;;;;;;;3.17;2.88;;;26.70;55.30;;;;;;5021689;28;20033;-68
2023/09/11 05:05:03;;;;;;;3.05;2.75;;;26.60;55.20;;;;;;5020038;28;20061;-67
2023/09/11 05:07:29;;;;;;;3.25;2.92;;;26.70;55.30;;;;;;5021761;28;20532;-68
2023/09/11 05:09:54;;;;;;;3.10;2.80;;;26.70;55.30;;;;;;5020734;28;20482;-67
2023/09/11 05:12:20;;;;;;;3.03;2.72;;;26.70;55.30;;;;;;5020336;28;20029;-63
2023/09/11 05:14:46;;;;;;;3.63;3.17;;;26.60;55.20;;;;;;5017622;28;20124;-64
2023/09/11 05:17:11;;;;;;;3.22;2.60;;;26.70;55.30;;;;;;5020691;28;20041;-64
2023/09/11 05:19:37;;;;;;;3.10;2.80;;;26.60;55.20;;;;;;5033423;28;20373;-63
2023/09/11 05:22:03;;;;;;;3.08;2.72;;;26.60;55.20;;;;;;5028236;28;20040;-63
2023/09/11 05:24:28;;;;;;;3.83;3.13;;;26.60;55.20;;;;;;5020587;28;20381;-64
2023/09/11 05:26:54;;;;;;;3.20;2.90;;;26.60;55.20;;;;;;5019925;28;20092;-64
2023/09/11 05:29:20;;;;;;;3.13;2.83;;;26.60;55.20;;;;;;5021972;28;20026;-63
2023/09/11 05:31:45;;;;;;;3.10;2.80;;;26.60;55.20;;;;;;5020463;28;20429;-64
2023/09/11 05:34:12;;;;;;;3.13;2.83;;;26.60;55.20;;;;;;5021978;28;20040;-63
2023/09/11 05:36:38;;;;;;;3.30;3.00;;;26.60;55.20;;;;;;5020595;28;20056;-64
2023/09/11 05:39:04;;;;;;;3.15;2.85;;;26.60;55.20;;;;;;5020399;28;20057;-63
2023/09/11 05:41:29;;;;;;;3.35;2.90;;;26.60;55.20;;;;;;5015916;28;20082;-64
2023/09/11 05:43:55;;;;;;;3.00;2.50;;;26.60;55.20;;;;;;5022328;28;20033;-63
2023/09/11 05:46:20;;;;;;;2.80;2.50;;;26.60;55.20;;;;;;5020498;28;20125;-64
2023/09/11 05:48:46;;;;;;;3.15;2.83;;;26.60;55.20;;;;;;5019943;28;20029;-65
2023/09/11 05:51:11;;;;;;;3.25;2.92;;;26.50;55.10;;;;;;5021047;28;20033;-63
2023/09/11 05:53:37;;;;;;;3.22;2.90;;;26.50;55.10;;;;;;5018474;28;20026;-63
2023/09/11 05:56:03;;;;;;;3.10;2.80;;;26.50;55.20;;;;;;5018401;28;20458;-63
2023/09/11 05:58:28;;;;;;;3.10;2.80;;;26.50;55.20;;;;;;5019370;28;20029;-63
2023/09/11 06:00:54;;;;;;;3.00;2.70;;;26.60;55.20;;;;;;5020942;28;20534;-63
2023/09/11 06:03:20;;;;;;;3.35;2.70;;;26.60;55.20;;;;;;5020929;28;20034;-67
2023/09/11 06:05:45;;;;;;;3.05;2.75;;;26.50;55.10;;;;;;5020265;28;20057;-67
2023/09/11 06:08:11;;;;;;;3.25;2.60;;;26.50;55.20;;;;;;5021405;28;20403;-68
2023/09/11 06:10:37;;;;;;;3.10;2.80;;;26.50;55.20;;;;;;5017412;28;20026;-66
2023/09/11 06:13:03;;;;;;;3.58;2.72;;;26.50;55.20;;;;;;5019755;28;20236;-66
2023/09/11 06:15:29;;;;;;;3.60;3.30;;;26.50;55.30;;;;;;5018621;28;20028;-66
2023/09/11 06:17:55;;;;;;;3.80;2.90;;;26.50;55.30;;;;;;5020153;28;20034;-66
2023/09/11 06:20:21;;;;;;;3.40;2.88;;;26.50;55.30;;;;;;5020332;28;20725;-66
2023/09/11 06:22:47;;;;;;;3.40;3.00;;;26.50;55.20;;;;;;5021082;28;20025;-63
2023/09/11 06:25:13;;;;;;;3.15;2.85;;;26.50;55.20;;;;;;5029998;28;20060;-63
2023/09/11 06:27:39;;;;;;;4.32;3.30;;;26.50;55.20;;;;;;5019096;28;20104;-63
2023/09/11 06:30:05;;;;;;;3.33;3.03;;;26.60;55.70;;;;;;5020308;28;20541;-63
2023/09/11 06:32:32;;;;;;;3.90;3.50;;;26.60;55.10;;;;;;5019313;28;20417;-63
2023/09/11 06:34:59;;;;;;;3.40;3.00;;;26.60;55.10;;;;;;5019491;28;20025;-62
2023/09/11 06:37:24;;;;;;;3.58;3.22;;;26.60;55.10;;;;;;5020110;28;20485;-64
2023/09/11 06:39:50;;;;;;;4.00;3.20;;;26.60;55.00;;;;;;5009645;28;20108;-63
2023/09/11 06:42:24;;;;;;;3.67;3.10;;;26.70;55.10;;;;;;5018715;28;20030;-63
2023/09/11 06:44:54;;;;;;;3.58;3.28;;;26.60;55.20;;;;;;5023735;28;20064;-63
2023/09/11 06:47:20;;;;;;;3.20;2.85;;;26.70;55.10;;;;;;5019768;28;20037;-63
2023/09/11 06:49:45;;;;;;;3.40;3.10;;;26.70;55.20;;;;;;5018854;28;20022;-63
2023/09/11 06:52:11;;;;;;;4.03;3.35;;;26.70;55.20;;;;;;5020240;28;20033;-62
2023/09/11 06:54:36;;;;;;;4.93;3.17;;;26.70;55.20;;;;;;5020112;28;20493;-62
2023/09/11 06:57:02;;;;;;;3.38;3.08;;;26.70;55.10;;;;;;5020724;28;20069;-63
2023/09/11 06:59:28;;;;;;;3.90;3.50;;;26.70;55.10;;;;;;5018432;28;20033;-64
2023/09/11 07:01:54;;;;;;;4.78;3.60;;;26.70;55.10;;;;;;5018265;28;20037;-63
2023/09/11 07:04:19;;;;;;;4.53;3.30;;;26.80;55.20;;;;;;5020982;28;20398;-62
2023/09/11 07:06:46;;;;;;;3.22;2.92;;;26.80;55.20;;;;;;5020539;28;20073;-63
2023/09/11 07:09:11;;;;;;;3.65;3.20;;;26.80;55.20;;;;;;5022020;28;20029;-63
2023/09/11 07:11:37;;;;;;;3.20;2.90;;;26.80;55.20;;;;;;5018036;28;20374;-63
2023/09/11 07:14:05;;;;;;;3.92;3.00;;;26.80;55.30;;;;;;5018199;28;20056;-62
2023/09/11 07:16:31;;;;;;;4.15;2.80;;;26.80;55.20;;;;;;5020599;28;20049;-63
2023/09/11 07:18:56;;;;;;;3.38;2.88;;;26.80;55.40;;;;;;5020352;28;20030;-63
2023/09/11 07:21:22;;;;;;;3.47;2.70;;;26.80;55.40;;;;;;5018832;28;20025;-63
2023/09/11 07:23:48;;;;;;;3.15;2.85;;;26.80;55.30;;;;;;5017266;28;20446;-65
2023/09/11 07:26:13;;;;;;;5.63;3.25;;;26.80;55.30;;;;;;5019955;28;20029;-65
2023/09/11 07:28:59;;;;;;;3.60;3.25;;;26.90;55.40;;;;;;5018811;28;20048;-65
2023/09/11 07:31:25;;;;;;;4.82;3.42;;;26.90;55.40;;;;;;5017704;28;20033;-65
2023/09/11 07:33:51;;;;;;;3.42;3.05;;;26.90;55.30;;;;;;5020001;28;20036;-63
2023/09/11 07:36:20;;;;;;;3.30;2.92;;;26.90;55.30;;;;;;5020507;28;20041;-63
2023/09/11 07:38:47;;;;;;;3.00;2.65;;;26.90;55.30;;;;;;5017324;28;20026;-63
2023/09/11 07:41:15;;;;;;;3.00;2.60;;;26.90;55.40;;;;;;5019498;28;20030;-62
2023/09/11 07:43:42;;;;;;;3.22;2.80;;;27.00;55.70;;;;;;5018653;28;20041;-62
2023/09/11 07:46:08;;;;;;;2.88;2.50;;;27.00;55.70;;;;;;5019590;28;20100;-63
2023/09/11 07:48:35;;;;;;;3.17;2.80;;;27.00;55.80;;;;;;5024234;28;20026;-62
2023/09/11 07:51:00;;;;;;;2.88;2.58;;;27.00;55.70;;;;;;5022280;28;20068;-62
2023/09/11 07:53:26;;;;;;;3.08;2.60;;;27.00;56.00;;;;;;5022985;28;20061;-63
2023/09/11 07:55:52;;;;;;;3.00;2.70;;;27.00;55.90;;;;;;5020559;28;20033;-63
2023/09/11 07:58:17;;;;;;;3.55;2.83;;;27.00;55.80;;;;;;5022191;28;20025;-63
2023/09/11 08:00:43;;;;;;;3.50;2.80;;;27.00;55.60;;;;;;5022521;28;20131;-63
2023/09/11 08:03:08;;;;;;;2.90;2.55;;;27.00;55.50;;;;;;5022720;28;20033;-63
2023/09/11 08:05:34;;;;;;;3.22;2.53;;;27.10;55.60;;;;;;5020943;28;20942;-63
2023/09/11 08:08:02;;;;;;;3.25;2.83;;;27.10;55.60;;;;;;5021546;28;20087;-62
2023/09/11 08:10:28;;;;;;;3.33;2.88;;;27.10;55.60;;;;;;5021874;28;20029;-62
2023/09/11 08:12:54;;;;;;;3.72;3.00;;;27.10;55.50;;;;;;5021676;28;20033;-63
2023/09/11 08:15:20;;;;;;;3.30;2.63;;;27.10;55.60;;;;;;5021580;28;20096;-63
2023/09/11 08:17:45;;;;;;;5.35;2.90;;;27.10;55.60;;;;;;5022520;28;20065;-63
2023/09/11 08:20:11;;;;;;;3.45;3.10;;;27.10;55.90;;;;;;5025125;28;20112;-63
2023/09/11 08:22:39;;;;;;;4.07;3.00;;;27.10;55.60;;;;;;5020526;28;20045;-63
2023/09/11 08:25:05;;;;;;;3.60;2.80;;;27.20;55.60;;;;;;5020094;28;20041;-63
2023/09/11 08:27:31;;;;;;;3.17;2.88;;;27.20;55.60;;;;;;5020330;28;20315;-62
2023/09/11 08:29:57;;;;;;;3.72;3.20;;;27.20;55.60;;;;;;5019903;28;20100;-63
2023/09/11 08:32:23;;;;;;;3.60;2.95;;;27.20;55.60;;;;;;5022739;28;20032;-62
2023/09/11 08:34:49;;;;;;;3.83;3.05;;;27.20;55.50;;;;;;5021793;28;20105;-61
2023/09/11 08:37:14;;;;;;;3.63;3.20;;;27.20;55.50;;;;;;5019998;28;20025;-60
2023/09/11 08:39:40;;;;;;;3.85;3.40;;;27.20;55.50;;;;;;5021790;28;20030;-61
2023/09/11 08:42:08;;;;;;;3.90;3.13;;;27.20;55.50;;;;;;5021540;28;20057;-65
2023/09/11 08:44:34;;;;;;;6.05;4.47;;;27.30;55.60;;;;;;5022016;28;20030;-65
2023/09/11 08:47:03;;;;;;;5.30;3.90;;;27.30;57.10;;;;;;5021192;28;20440;-64
2023/09/11 08:49:33;;;;;;;4.45;4.05;;;27.30;57.20;;;;;;5020919;28;20076;-64
2023/09/11 08:52:03;;;;;;;4.57;3.85;;;27.50;56.80;;;;;;5022761;28;20346;-64
2023/09/11 08:54:33;;;;;;;3.88;3.20;;;27.50;56.00;;;;;;5019171;28;20071;-65
2023/09/11 08:56:59;;;;;;;4.07;3.63;;;27.40;55.90;;;;;;5021318;28;20080;-65
2023/09/11 08:59:28;;;;;;;3.92;3.35;;;27.40;55.90;;;;;;5020405;28;20503;-65
2023/09/11 09:01:55;;;;;;;3.60;2.80;;;27.40;56.40;;;;;;5022242;28;20484;-65
2023/09/11 09:04:21;;;;;;;3.22;2.90;;;27.40;56.80;;;;;;5021263;28;20064;-65
2023/09/11 09:06:48;;;;;;;3.00;2.70;;;27.50;57.20;;;;;;5023361;28;20434;-65
2023/09/11 09:09:13;;;;;;;3.35;2.85;;;27.50;56.90;;;;;;5018092;28;20437;-65
2023/09/11 09:11:45;;;;;;;3.80;3.00;;;27.50;57.30;;;;;;5020437;28;20037;-65
2023/09/11 09:14:14;;;;;;;3.15;2.80;;;27.50;57.30;;;;;;5019748;28;20034;-64
2023/09/11 09:16:39;;;;;;;3.30;2.97;;;27.60;57.30;;;;;;5020955;28;20448;-64
2023/09/11 09:19:05;;;;;;;3.35;2.70;;;27.60;57.30;;;;;;5021051;28;20029;-65
2023/09/11 09:21:30;;;;;;;3.45;2.80;;;27.60;57.20;;;;;;5019552;28;20485;-65
2023/09/11 09:24:09;;;;;;;3.42;2.90;;;27.70;57.30;;;;;;5021032;28;20109;-65
2023/09/11 09:26:55;;;;;;;3.20;2.90;;;27.60;57.10;;;;;;5020294;28;20392;-64
2023/09/11 09:29:20;;;;;;;3.65;2.95;;;27.70;57.00;;;;;;5020528;28;20100;-65
2023/09/11 09:31:47;;;;;;;3.90;3.50;;;27.70;57.10;;;;;;5021571;28;20116;-65
2023/09/11 09:34:13;;;;;;;4.82;3.60;;;27.70;56.60;;;;;;5019205;28;20497;-66
2023/09/11 09:36:52;;;;;;;3.88;3.47;;;27.80;55.90;;;;;;5020952;28;20105;-65
2023/09/11 09:39:18;;;;;;;4.22;3.75;;;27.80;55.60;;;;;;5020419;28;20036;-65
2023/09/11 09:41:58;;;;;;;3.90;3.50;;;27.80;55.50;;;;;;5020503;28;20084;-63
2023/09/11 09:44:34;;;;;;;5.60;3.80;;;27.80;55.40;;;;;;5019724;28;20057;-68
2023/09/11 09:47:06;;;;;;;4.10;3.70;;;27.80;55.40;;;;;;5020814;28;20029;-67
2023/09/11 09:49:41;;;;;;;3.60;3.30;;;27.80;55.30;;;;;;5020455;28;20067;-67
2023/09/11 09:52:07;;;;;;;3.90;3.30;;;27.80;55.20;;;;;;5021683;28;20060;-63
2023/09/11 09:54:46;;;;;;;3.90;3.50;;;27.80;55.10;;;;;;5018993;28;20084;-63
2023/09/11 09:57:16;;;;;;;4.07;3.67;;;27.80;55.10;;;;;;5019819;28;20116;-64
2023/09/11 09:59:42;;;;;;;4.22;3.33;;;27.80;55.10;;;;;;5018778;28;20120;-63
2023/09/11 10:02:13;;;;;;;3.83;3.45;;;27.80;55.00;;;;;;5018739;28;20790;-64
2023/09/11 10:04:39;;;;;;;3.80;3.40;;;27.80;55.00;;;;;;5019891;28;20060;-64
2023/09/11 10:07:06;;;;;;;3.83;3.40;;;27.80;55.00;;;;;;5019356;28;20533;-63
2023/09/11 10:09:33;;;;;;;4.15;3.50;;;27.80;55.00;;;;;;5017377;28;20072;-63
2023/09/11 10:12:03;;;;;;;3.78;3.47;;;27.80;55.00;;;;;;5020121;28;20034;-63
2023/09/11 10:14:30;;;;;;;3.80;3.47;;;27.80;54.90;;;;;;5019574;28;20026;-63
2023/09/11 10:16:58;;;;;;;3.97;3.58;;;27.80;54.90;;;;;;5020008;28;20436;-64
2023/09/11 10:19:27;;;;;;;4.10;3.40;;;27.80;54.90;;;;;;5020409;28;20113;-63
2023/09/11 10:21:53;;;;;;;4.15;3.55;;;27.80;54.80;;;;;;5019627;28;20161;-63
2023/09/11 10:24:18;;;;;;;4.30;3.90;;;27.80;54.80;;;;;;5019252;28;20109;-64
2023/09/11 10:26:49;;;;;;;4.20;3.80;;;27.80;54.80;;;;;;5021395;28;20033;-64
2023/09/11 10:29:37;;;;;;;3.90;3.50;;;27.80;55.30;;;;;;5020749;28;20541;-63
2023/09/11 10:32:09;;;;;;;4.18;3.75;;;27.80;54.80;;;;;;5027634;28;20025;-63
2023/09/11 10:34:37;;;;;;;4.00;3.40;;;27.80;54.80;;;;;;5019669;28;20033;-64
2023/09/11 10:37:05;;;;;;;4.10;3.40;;;27.80;54.70;;;;;;5019193;28;20057;-64
2023/09/11 10:39:33;;;;;;;3.75;3.40;;;27.80;54.70;;;;;;5019553;28;20034;-64
2023/09/11 10:41:59;;;;;;;4.45;3.50;;;27.80;54.70;;;;;;5018432;28;20426;-63
2023/09/11 10:44:27;;;;;;;4.13;3.50;;;27.80;54.70;;;;;;5017604;28;20030;-63
2023/09/11 10:46:54;;;;;;;3.60;3.30;;;27.80;54.60;;;;;;5020904;28;20044;-63
2023/09/11 10:49:23;;;;;;;3.33;3.03;;;27.80;54.60;;;;;;5020325;28;20030;-64
2023/09/11 10:51:49;;;;;;;3.30;3.00;;;27.80;54.60;;;;;;5020211;28;20022;-66
2023/09/11 10:54:22;;;;;;;3.33;3.03;;;27.80;54.60;;;;;;5018102;28;20040;-63
2023/09/11 10:56:51;;;;;;;3.45;3.15;;;27.80;54.60;;;;;;5020343;28;20041;-63
2023/09/11 10:59:17;;;;;;;3.58;3.28;;;27.90;54.70;;;;;;5018688;28;20128;-63
2023/09/11 11:01:46;;;;;;;3.50;3.20;;;27.80;54.60;;;;;;5019049;28;20103;-65
2023/09/11 11:04:14;;;;;;;3.97;3.50;;;27.80;54.60;;;;;;5018751;28;20112;-65
2023/09/11 11:06:45;;;;;;;3.42;3.13;;;27.80;54.60;;;;;;5015968;28;20100;-65
2023/09/11 11:09:25;;;;;;;4.50;3.42;;;27.90;54.80;;;;;;5021231;28;20030;-66
2023/09/11 11:11:50;;;;;;;4.13;3.50;;;27.80;54.70;;;;;;5016252;28;20481;-65
2023/09/11 11:14:18;;;;;;;3.75;3.00;;;27.80;54.70;;;;;;5020460;28;20044;-65
2023/09/11 11:17:15;;;;;;;3.58;3.28;;;27.90;54.80;;;;;;5019983;28;20407;-66
2023/09/11 11:20:00;;;;;;;3.70;3.20;;;27.80;54.70;;;;;;5009446;28;20053;-65
2023/09/11 11:22:34;;;;;;;3.50;3.20;;;27.90;54.80;;;;;;5020965;28;20029;-65
2023/09/11 11:25:03;;;;;;;3.50;3.20;;;27.90;54.80;;;;;;5024325;28;20026;-65
2023/09/11 11:27:29;;;;;;;3.67;3.28;;;27.90;54.80;;;;;;5024211;28;20029;-66
2023/09/11 11:29:56;;;;;;;3.75;3.35;;;27.90;54.80;;;;;;5021812;28;20029;-66
2023/09/11 11:32:22;;;;;;;3.70;3.30;;;27.90;54.90;;;;;;5023613;28;20030;-66
2023/09/11 11:34:50;;;;;;;3.92;3.30;;;27.90;54.90;;;;;;5025308;28;20034;-66
2023/09/11 11:37:20;;;;;;;3.30;3.00;;;27.90;54.90;;;;;;5023075;28;20026;-66
2023/09/11 11:39:46;;;;;;;3.35;3.05;;;27.90;54.90;;;;;;5024006;28;20350;-66
2023/09/11 11:42:13;;;;;;;3.80;3.40;;;27.90;54.90;;;;;;5024465;28;20129;-67
2023/09/11 11:44:40;;;;;;;3.53;3.22;;;28.00;55.00;;;;;;5021723;28;20038;-67
2023/09/11 11:47:07;;;;;;;3.22;2.92;;;27.90;54.90;;;;;;5021764;28;20392;-67
2023/09/11 11:49:34;;;;;;;3.50;3.20;;;27.90;54.90;;;;;;5022117;28;20776;-68
2023/09/11 11:52:04;;;;;;;3.40;3.10;;;28.00;55.00;;;;;;5019822;28;20038;-68
2023/09/11 11:54:30;;;;;;;3.90;3.50;;;28.00;55.00;;;;;;5020168;28;20087;-67
2023/09/11 11:57:01;;;;;;;3.42;3.13;;;28.00;55.00;;;;;;5020573;28;20030;-67
2023/09/11 11:59:36;;;;;;;4.10;3.60;;;28.00;55.00;;;;;;5022153;28;20498;-65
2023/09/11 12:02:03;;;;;;;3.60;3.30;;;28.00;55.00;;;;;;5022314;28;20080;-69
2023/09/11 12:04:29;;;;;;;3.70;3.25;;;28.00;55.00;;;;;;5023840;28;20485;-66
2023/09/11 12:06:57;;;;;;;3.50;3.13;;;28.00;55.00;;;;;;5021762;28;20109;-68
2023/09/11 12:09:23;;;;;;;3.30;3.00;;;28.00;54.90;;;;;;5022918;28;20448;-68
2023/09/11 12:11:49;;;;;;;3.83;3.17;;;28.00;55.50;;;;;;5020513;28;20496;-65
2023/09/11 12:14:16;;;;;;;3.40;3.08;;;28.10;55.00;;;;;;5023540;28;20499;-65
2023/09/11 12:16:42;;;;;;;3.50;3.15;;;28.00;54.90;;;;;;5019298;28;20084;-66
2023/09/11 12:19:08;;;;;;;3.60;3.30;;;28.10;54.90;;;;;;5021203;28;20025;-65
2023/09/11 12:21:34;;;;;;;3.45;3.08;;;28.10;54.90;;;;;;5021122;28;20026;-68
2023/09/11 12:24:00;;;;;;;3.80;3.33;;;28.10;55.10;;;;;;5022062;28;20490;-65
2023/09/11 12:26:27;;;;;;;3.53;3.13;;;28.10;55.00;;;;;;5022058;28;20068;-65
2023/09/11 12:28:54;;;;;;;5.07;3.38;;;28.10;54.90;;;;;;5019788;28;20026;-65
2023/09/11 12:31:21;;;;;;;3.17;2.88;;;28.10;54.80;;;;;;5021157;28;20025;-66
2023/09/11 12:33:53;;;;;;;3.30;3.00;;;28.10;54.80;;;;;;5021346;28;20025;-65
2023/09/11 12:36:20;;;;;;;3.65;3.22;;;28.20;54.90;;;;;;5020776;28;20100;-66
2023/09/11 12:38:47;;;;;;;3.85;3.05;;;28.10;54.80;;;;;;5012361;28;20030;-67
2023/09/11 12:41:13;;;;;;;3.22;2.92;;;28.10;54.80;;;;;;5020806;28;20041;-65
2023/09/11 12:43:39;;;;;;;3.83;3.15;;;28.10;54.80;;;;;;5021264;28;20029;-65
2023/09/11 12:46:05;;;;;;;3.63;3.33;;;28.10;54.80;;;;;;5021137;28;20358;-65
2023/09/11 12:48:31;;;;;;;3.45;3.10;;;28.20;54.80;;;;;;5021391;28;20036;-66